Terminal Aerodrome Forecast
Issued by NWS

Home | Current Version | Previous Version | Text Only | Print | Product List | Glossary On
Versions: 1 2 3 4 5 6 7 8 9 10 11 12 13 14 15 16 17 18 19 20 21 22 23 24 25
000
FTUS46 KSGX 262026 AAA
TAFSAN
TAF AMD
KSAN 262026Z 2620/2724 31010KT P6SM FEW250
     FM270230 VRB04KT P6SM SKC
     FM270700 VRB03KT P6SM FEW006
     FM272000 30011KT P6SM FEW250=

USA.gov is the U.S. government's official web portal to all federal, state and local government web resources and services.